Terminal Aerodrome Forecast
Issued by NWS

Home | Current Version | Previous Version | Graphics & Text | Print | Product List | Glossary On
Versions: 1 2 3 4 5 6 7 8 9 10 11 12 13 14 15 16 17
522
FTUS43 KBIS 062327
TAFMOT
TAF
KMOT 062327Z 0700/0724 28029G37KT 1SM -SN BLSN OVC040
      TEMPO 0700/0704 1/2SM -SN BLSN OVC020
     FM070400 30025G35KT 2SM BLSN OVC025
     FM071600 29024KT 6SM BLSN OVC025=

USA.gov is the U.S. government's official web portal to all federal, state and local government web resources and services.